sensor_id;sensor_type;location;lat;lon;timestamp;temperature;humidity
56066;DHT22;75952;50.922;4.514;2024-02-04T00:02:08;10.50;96.50
56066;DHT22;75952;50.922;4.514;2024-02-04T00:04:39;10.40;96.90
56066;DHT22;75952;50.922;4.514;2024-02-04T00:07:07;10.30;97.10
56066;DHT22;75952;50.922;4.514;2024-02-04T00:09:33;10.40;97.00
56066;DHT22;75952;50.922;4.514;2024-02-04T00:12:01;10.40;96.80
56066;DHT22;75952;50.922;4.514;2024-02-04T00:14:29;10.40;96.80
56066;DHT22;75952;50.922;4.514;2024-02-04T00:16:55;10.50;96.60
56066;DHT22;75952;50.922;4.514;2024-02-04T00:19:21;10.40;96.60
56066;DHT22;75952;50.922;4.514;2024-02-04T00:21:47;10.40;96.90
56066;DHT22;75952;50.922;4.514;2024-02-04T00:24:12;10.50;96.80
56066;DHT22;75952;50.922;4.514;2024-02-04T00:26:38;10.50;96.60
56066;DHT22;75952;50.922;4.514;2024-02-04T00:29:06;10.50;96.70
56066;DHT22;75952;50.922;4.514;2024-02-04T00:31:34;10.40;97.00
56066;DHT22;75952;50.922;4.514;2024-02-04T00:34:00;10.50;97.00
56066;DHT22;75952;50.922;4.514;2024-02-04T00:36:26;10.50;96.80
56066;DHT22;75952;50.922;4.514;2024-02-04T00:38:52;10.40;97.10
56066;DHT22;75952;50.922;4.514;2024-02-04T00:41:17;10.30;97.00
56066;DHT22;75952;50.922;4.514;2024-02-04T00:43:43;10.40;97.10
56066;DHT22;75952;50.922;4.514;2024-02-04T00:46:11;10.50;97.00
56066;DHT22;75952;50.922;4.514;2024-02-04T00:48:37;10.40;97.20
56066;DHT22;75952;50.922;4.514;2024-02-04T00:51:03;10.40;97.10
56066;DHT22;75952;50.922;4.514;2024-02-04T00:53:29;10.40;97.60
56066;DHT22;75952;50.922;4.514;2024-02-04T00:56:02;10.40;97.40
56066;DHT22;75952;50.922;4.514;2024-02-04T00:58:28;10.40;97.30
56066;DHT22;75952;50.922;4.514;2024-02-04T01:00:54;10.50;97.10
56066;DHT22;75952;50.922;4.514;2024-02-04T01:03:19;10.50;97.30
56066;DHT22;75952;50.922;4.514;2024-02-04T01:05:45;10.50;97.20
56066;DHT22;75952;50.922;4.514;2024-02-04T01:08:13;10.40;97.30
56066;DHT22;75952;50.922;4.514;2024-02-04T01:10:38;10.40;97.30
56066;DHT22;75952;50.922;4.514;2024-02-04T01:13:04;10.40;97.60
56066;DHT22;75952;50.922;4.514;2024-02-04T01:15:32;10.40;97.50
56066;DHT22;75952;50.922;4.514;2024-02-04T01:17:58;10.50;97.60
56066;DHT22;75952;50.922;4.514;2024-02-04T01:20:23;10.50;97.30
56066;DHT22;75952;50.922;4.514;2024-02-04T01:22:52;10.40;97.60
56066;DHT22;75952;50.922;4.514;2024-02-04T01:25:18;10.40;97.80
56066;DHT22;75952;50.922;4.514;2024-02-04T01:27:45;10.40;97.60
56066;DHT22;75952;50.922;4.514;2024-02-04T01:30:11;10.40;97.80
56066;DHT22;75952;50.922;4.514;2024-02-04T01:32:37;10.40;97.80
56066;DHT22;75952;50.922;4.514;2024-02-04T01:35:03;10.30;98.10
56066;DHT22;75952;50.922;4.514;2024-02-04T01:37:29;10.30;98.10
56066;DHT22;75952;50.922;4.514;2024-02-04T01:39:57;10.40;98.10
56066;DHT22;75952;50.922;4.514;2024-02-04T01:42:22;10.40;98.30
56066;DHT22;75952;50.922;4.514;2024-02-04T01:44:48;10.40;98.00
56066;DHT22;75952;50.922;4.514;2024-02-04T01:47:14;10.60;97.60
56066;DHT22;75952;50.922;4.514;2024-02-04T01:49:40;10.50;97.70
56066;DHT22;75952;50.922;4.514;2024-02-04T01:52:09;10.40;97.60
56066;DHT22;75952;50.922;4.514;2024-02-04T01:54:37;10.50;97.80
56066;DHT22;75952;50.922;4.514;2024-02-04T01:57:09;10.50;97.80
56066;DHT22;75952;50.922;4.514;2024-02-04T01:59:35;10.50;97.80
56066;DHT22;75952;50.922;4.514;2024-02-04T02:02:04;10.50;97.90
56066;DHT22;75952;50.922;4.514;2024-02-04T02:04:30;10.40;97.90
56066;DHT22;75952;50.922;4.514;2024-02-04T02:06:56;10.50;97.80
56066;DHT22;75952;50.922;4.514;2024-02-04T02:09:24;10.60;97.50
56066;DHT22;75952;50.922;4.514;2024-02-04T02:12:01;10.60;97.40
56066;DHT22;75952;50.922;4.514;2024-02-04T02:14:32;10.50;97.40
56066;DHT22;75952;50.922;4.514;2024-02-04T02:17:05;10.40;97.70
56066;DHT22;75952;50.922;4.514;2024-02-04T02:19:52;10.40;97.80
56066;DHT22;75952;50.922;4.514;2024-02-04T02:22:24;10.50;97.40
56066;DHT22;75952;50.922;4.514;2024-02-04T02:24:51;10.50;97.90
56066;DHT22;75952;50.922;4.514;2024-02-04T02:27:17;10.50;97.70
56066;DHT22;75952;50.922;4.514;2024-02-04T02:29:46;10.50;97.60
56066;DHT22;75952;50.922;4.514;2024-02-04T02:32:11;10.60;97.40
56066;DHT22;75952;50.922;4.514;2024-02-04T02:34:37;10.60;97.20
56066;DHT22;75952;50.922;4.514;2024-02-04T02:40:09;10.60;97.20
56066;DHT22;75952;50.922;4.514;2024-02-04T02:42:36;10.60;97.10
56066;DHT22;75952;50.922;4.514;2024-02-04T02:45:04;10.60;97.00
56066;DHT22;75952;50.922;4.514;2024-02-04T02:47:31;10.60;97.10
56066;DHT22;75952;50.922;4.514;2024-02-04T02:49:57;10.60;96.90
56066;DHT22;75952;50.922;4.514;2024-02-04T02:52:22;10.70;96.90
56066;DHT22;75952;50.922;4.514;2024-02-04T02:54:48;10.60;97.20
56066;DHT22;75952;50.922;4.514;2024-02-04T02:57:14;10.60;97.10
56066;DHT22;75952;50.922;4.514;2024-02-04T02:59:39;10.70;96.90
56066;DHT22;75952;50.922;4.514;2024-02-04T03:02:05;10.80;96.60
56066;DHT22;75952;50.922;4.514;2024-02-04T03:04:31;10.70;96.50
56066;DHT22;75952;50.922;4.514;2024-02-04T03:06:56;10.70;96.70
56066;DHT22;75952;50.922;4.514;2024-02-04T03:09:22;10.70;96.50
56066;DHT22;75952;50.922;4.514;2024-02-04T03:11:47;10.60;96.70
56066;DHT22;75952;50.922;4.514;2024-02-04T03:14:16;10.70;96.80
56066;DHT22;75952;50.922;4.514;2024-02-04T03:16:46;10.70;96.70
56066;DHT22;75952;50.922;4.514;2024-02-04T03:19:12;10.70;96.60
56066;DHT22;75952;50.922;4.514;2024-02-04T03:21:42;10.80;96.10
56066;DHT22;75952;50.922;4.514;2024-02-04T03:24:08;10.70;96.10
56066;DHT22;75952;50.922;4.514;2024-02-04T03:26:34;10.70;96.30
56066;DHT22;75952;50.922;4.514;2024-02-04T03:29:01;10.70;96.40
56066;DHT22;75952;50.922;4.514;2024-02-04T03:31:32;10.60;96.50
56066;DHT22;75952;50.922;4.514;2024-02-04T03:34:00;10.80;96.20
56066;DHT22;75952;50.922;4.514;2024-02-04T03:36:25;10.80;95.90
56066;DHT22;75952;50.922;4.514;2024-02-04T03:38:53;10.80;96.00
56066;DHT22;75952;50.922;4.514;2024-02-04T03:41:19;10.70;96.00
56066;DHT22;75952;50.922;4.514;2024-02-04T03:43:45;10.80;96.00
56066;DHT22;75952;50.922;4.514;2024-02-04T03:46:14;10.80;96.00
56066;DHT22;75952;50.922;4.514;2024-02-04T03:48:40;10.80;95.90
56066;DHT22;75952;50.922;4.514;2024-02-04T03:51:06;10.80;96.10
56066;DHT22;75952;50.922;4.514;2024-02-04T03:53:31;10.80;96.00
56066;DHT22;75952;50.922;4.514;2024-02-04T03:55:59;10.80;96.20
56066;DHT22;75952;50.922;4.514;2024-02-04T03:58:27;10.70;96.50
56066;DHT22;75952;50.922;4.514;2024-02-04T04:00:56;10.70;96.50
56066;DHT22;75952;50.922;4.514;2024-02-04T04:03:22;10.70;96.40
56066;DHT22;75952;50.922;4.514;2024-02-04T04:05:48;10.70;96.50
56066;DHT22;75952;50.922;4.514;2024-02-04T04:08:13;10.60;96.80
56066;DHT22;75952;50.922;4.514;2024-02-04T04:10:39;10.50;96.90
56066;DHT22;75952;50.922;4.514;2024-02-04T04:13:07;10.60;96.70
56066;DHT22;75952;50.922;4.514;2024-02-04T04:15:33;10.60;96.70
56066;DHT22;75952;50.922;4.514;2024-02-04T04:18:01;10.60;96.60
56066;DHT22;75952;50.922;4.514;2024-02-04T04:20:26;10.60;96.80
56066;DHT22;75952;50.922;4.514;2024-02-04T04:22:52;10.60;96.80
56066;DHT22;75952;50.922;4.514;2024-02-04T04:25:20;10.50;97.00
56066;DHT22;75952;50.922;4.514;2024-02-04T04:27:45;10.60;96.90
56066;DHT22;75952;50.922;4.514;2024-02-04T04:30:11;10.60;96.90
56066;DHT22;75952;50.922;4.514;2024-02-04T04:32:37;10.70;96.70
56066;DHT22;75952;50.922;4.514;2024-02-04T04:35:03;10.70;96.50
56066;DHT22;75952;50.922;4.514;2024-02-04T04:37:28;10.70;96.60
56066;DHT22;75952;50.922;4.514;2024-02-04T04:39:54;10.70;96.30
56066;DHT22;75952;50.922;4.514;2024-02-04T04:42:20;10.60;96.70
56066;DHT22;75952;50.922;4.514;2024-02-04T04:44:48;10.70;96.70
56066;DHT22;75952;50.922;4.514;2024-02-04T04:47:14;10.60;96.80
56066;DHT22;75952;50.922;4.514;2024-02-04T04:49:40;10.60;96.80
56066;DHT22;75952;50.922;4.514;2024-02-04T04:52:07;10.60;96.80
56066;DHT22;75952;50.922;4.514;2024-02-04T04:54:32;10.70;96.70
56066;DHT22;75952;50.922;4.514;2024-02-04T04:57:00;10.60;96.70
56066;DHT22;75952;50.922;4.514;2024-02-04T04:59:28;10.60;96.90
56066;DHT22;75952;50.922;4.514;2024-02-04T05:01:54;10.60;96.80
56066;DHT22;75952;50.922;4.514;2024-02-04T05:04:22;10.60;96.90
56066;DHT22;75952;50.922;4.514;2024-02-04T05:06:54;10.60;97.00
56066;DHT22;75952;50.922;4.514;2024-02-04T05:09:19;10.60;96.90
56066;DHT22;75952;50.922;4.514;2024-02-04T05:11:47;10.60;97.10
56066;DHT22;75952;50.922;4.514;2024-02-04T05:14:13;10.60;97.00
56066;DHT22;75952;50.922;4.514;2024-02-04T05:16:38;10.50;97.00
56066;DHT22;75952;50.922;4.514;2024-02-04T05:19:04;10.50;97.40
56066;DHT22;75952;50.922;4.514;2024-02-04T05:21:32;10.60;97.10
56066;DHT22;75952;50.922;4.514;2024-02-04T05:24:00;10.60;97.00
56066;DHT22;75952;50.922;4.514;2024-02-04T05:26:25;10.50;97.10
56066;DHT22;75952;50.922;4.514;2024-02-04T05:28:51;10.60;97.10
56066;DHT22;75952;50.922;4.514;2024-02-04T05:31:16;10.60;96.90
56066;DHT22;75952;50.922;4.514;2024-02-04T05:33:42;10.60;96.80
56066;DHT22;75952;50.922;4.514;2024-02-04T05:36:08;10.60;96.80
56066;DHT22;75952;50.922;4.514;2024-02-04T05:38:35;10.60;96.70
56066;DHT22;75952;50.922;4.514;2024-02-04T05:41:04;10.60;96.90
56066;DHT22;75952;50.922;4.514;2024-02-04T05:43:31;10.70;96.60
56066;DHT22;75952;50.922;4.514;2024-02-04T05:45:57;10.70;96.20
56066;DHT22;75952;50.922;4.514;2024-02-04T05:48:25;10.70;96.50
56066;DHT22;75952;50.922;4.514;2024-02-04T05:50:52;10.60;96.50
56066;DHT22;75952;50.922;4.514;2024-02-04T05:53:18;10.60;96.80
56066;DHT22;75952;50.922;4.514;2024-02-04T05:55:44;10.60;96.60
56066;DHT22;75952;50.922;4.514;2024-02-04T05:58:09;10.60;96.50
56066;DHT22;75952;50.922;4.514;2024-02-04T06:00:36;10.50;96.60
56066;DHT22;75952;50.922;4.514;2024-02-04T06:03:01;10.50;96.80
56066;DHT22;75952;50.922;4.514;2024-02-04T06:05:29;10.50;97.00
56066;DHT22;75952;50.922;4.514;2024-02-04T06:07:57;10.40;97.20
56066;DHT22;75952;50.922;4.514;2024-02-04T06:10:25;10.40;97.00
56066;DHT22;75952;50.922;4.514;2024-02-04T06:12:56;10.50;97.00
56066;DHT22;75952;50.922;4.514;2024-02-04T06:15:24;10.50;96.80
56066;DHT22;75952;50.922;4.514;2024-02-04T06:17:54;10.50;96.80
56066;DHT22;75952;50.922;4.514;2024-02-04T06:20:19;10.60;96.60
56066;DHT22;75952;50.922;4.514;2024-02-04T06:22:45;10.70;96.30
56066;DHT22;75952;50.922;4.514;2024-02-04T06:25:13;10.60;96.50
56066;DHT22;75952;50.922;4.514;2024-02-04T06:27:38;10.70;96.50
56066;DHT22;75952;50.922;4.514;2024-02-04T06:30:06;10.80;96.20
56066;DHT22;75952;50.922;4.514;2024-02-04T06:32:36;10.60;96.50
56066;DHT22;75952;50.922;4.514;2024-02-04T06:35:05;10.60;96.50
56066;DHT22;75952;50.922;4.514;2024-02-04T06:37:30;10.60;96.60
56066;DHT22;75952;50.922;4.514;2024-02-04T06:40:01;10.60;96.90
56066;DHT22;75952;50.922;4.514;2024-02-04T06:42:29;10.60;96.90
56066;DHT22;75952;50.922;4.514;2024-02-04T06:44:54;10.40;97.50
56066;DHT22;75952;50.922;4.514;2024-02-04T06:47:20;10.50;97.40
56066;DHT22;75952;50.922;4.514;2024-02-04T06:49:46;10.40;97.70
56066;DHT22;75952;50.922;4.514;2024-02-04T06:52:14;10.40;97.80
56066;DHT22;75952;50.922;4.514;2024-02-04T06:54:42;10.40;97.70
56066;DHT22;75952;50.922;4.514;2024-02-04T06:57:07;10.40;97.80
56066;DHT22;75952;50.922;4.514;2024-02-04T06:59:33;10.40;97.90
56066;DHT22;75952;50.922;4.514;2024-02-04T07:01:58;10.30;98.20
56066;DHT22;75952;50.922;4.514;2024-02-04T07:04:26;10.40;98.20
56066;DHT22;75952;50.922;4.514;2024-02-04T07:06:52;10.30;98.10
56066;DHT22;75952;50.922;4.514;2024-02-04T07:09:20;10.30;98.00
56066;DHT22;75952;50.922;4.514;2024-02-04T07:11:50;10.40;97.70
56066;DHT22;75952;50.922;4.514;2024-02-04T07:14:16;10.30;97.80
56066;DHT22;75952;50.922;4.514;2024-02-04T07:16:43;10.30;97.60
56066;DHT22;75952;50.922;4.514;2024-02-04T07:19:09;10.40;97.80
56066;DHT22;75952;50.922;4.514;2024-02-04T07:21:35;10.40;97.90
56066;DHT22;75952;50.922;4.514;2024-02-04T07:24:03;10.50;97.60
56066;DHT22;75952;50.922;4.514;2024-02-04T07:26:28;10.50;97.10
56066;DHT22;75952;50.922;4.514;2024-02-04T07:28:56;10.40;97.30
56066;DHT22;75952;50.922;4.514;2024-02-04T07:31:22;10.40;97.40
56066;DHT22;75952;50.922;4.514;2024-02-04T07:33:47;10.50;97.30
56066;DHT22;75952;50.922;4.514;2024-02-04T07:36:13;10.50;97.20
56066;DHT22;75952;50.922;4.514;2024-02-04T07:38:39;10.50;97.20
56066;DHT22;75952;50.922;4.514;2024-02-04T07:41:06;10.50;97.30
56066;DHT22;75952;50.922;4.514;2024-02-04T07:43:32;10.50;97.00
56066;DHT22;75952;50.922;4.514;2024-02-04T07:45:58;10.70;96.80
56066;DHT22;75952;50.922;4.514;2024-02-04T07:48:26;10.60;96.80
56066;DHT22;75952;50.922;4.514;2024-02-04T07:50:51;10.70;96.60
56066;DHT22;75952;50.922;4.514;2024-02-04T07:53:17;10.60;96.70
56066;DHT22;75952;50.922;4.514;2024-02-04T07:55:43;10.60;96.90
56066;DHT22;75952;50.922;4.514;2024-02-04T07:58:09;10.60;96.80
56066;DHT22;75952;50.922;4.514;2024-02-04T08:00:34;10.70;96.80
56066;DHT22;75952;50.922;4.514;2024-02-04T08:03:02;10.70;96.30
56066;DHT22;75952;50.922;4.514;2024-02-04T08:05:28;10.80;96.30
56066;DHT22;75952;50.922;4.514;2024-02-04T08:07:59;10.90;95.40
56066;DHT22;75952;50.922;4.514;2024-02-04T08:10:27;10.80;95.70
56066;DHT22;75952;50.922;4.514;2024-02-04T08:12:55;10.70;95.60
56066;DHT22;75952;50.922;4.514;2024-02-04T08:15:23;10.80;95.90
56066;DHT22;75952;50.922;4.514;2024-02-04T08:17:48;10.80;95.70
56066;DHT22;75952;50.922;4.514;2024-02-04T08:20:14;10.80;95.60
56066;DHT22;75952;50.922;4.514;2024-02-04T08:22:44;10.70;95.70
56066;DHT22;75952;50.922;4.514;2024-02-04T08:25:12;10.70;95.80
56066;DHT22;75952;50.922;4.514;2024-02-04T08:27:40;10.80;95.70
56066;DHT22;75952;50.922;4.514;2024-02-04T08:30:08;10.70;95.70
56066;DHT22;75952;50.922;4.514;2024-02-04T08:32:37;10.90;95.50
56066;DHT22;75952;50.922;4.514;2024-02-04T08:35:03;10.90;95.10
56066;DHT22;75952;50.922;4.514;2024-02-04T08:37:29;11.00;95.00
56066;DHT22;75952;50.922;4.514;2024-02-04T08:39:54;10.90;95.00
56066;DHT22;75952;50.922;4.514;2024-02-04T08:42:20;10.90;95.20
56066;DHT22;75952;50.922;4.514;2024-02-04T08:44:46;10.80;95.60
56066;DHT22;75952;50.922;4.514;2024-02-04T08:47:12;10.80;95.60
56066;DHT22;75952;50.922;4.514;2024-02-04T08:49:42;10.70;95.80
56066;DHT22;75952;50.922;4.514;2024-02-04T08:52:08;10.70;95.80
56066;DHT22;75952;50.922;4.514;2024-02-04T08:54:33;10.80;95.70
56066;DHT22;75952;50.922;4.514;2024-02-04T08:56:59;10.90;95.30
56066;DHT22;75952;50.922;4.514;2024-02-04T08:59:27;11.10;94.70
56066;DHT22;75952;50.922;4.514;2024-02-04T09:01:52;11.10;94.40
56066;DHT22;75952;50.922;4.514;2024-02-04T09:04:18;11.20;94.60
56066;DHT22;75952;50.922;4.514;2024-02-04T09:06:46;11.30;94.50
56066;DHT22;75952;50.922;4.514;2024-02-04T09:09:16;11.20;94.30
56066;DHT22;75952;50.922;4.514;2024-02-04T09:11:42;11.00;94.80
56066;DHT22;75952;50.922;4.514;2024-02-04T09:14:07;11.00;95.20
56066;DHT22;75952;50.922;4.514;2024-02-04T09:16:33;11.00;95.00
56066;DHT22;75952;50.922;4.514;2024-02-04T09:18:59;11.00;95.10
56066;DHT22;75952;50.922;4.514;2024-02-04T09:21:24;11.10;94.60
56066;DHT22;75952;50.922;4.514;2024-02-04T09:23:50;11.20;94.30
56066;DHT22;75952;50.922;4.514;2024-02-04T09:26:16;11.20;94.30
56066;DHT22;75952;50.922;4.514;2024-02-04T09:28:44;11.20;94.20
56066;DHT22;75952;50.922;4.514;2024-02-04T09:31:10;11.30;93.80
56066;DHT22;75952;50.922;4.514;2024-02-04T09:33:38;11.40;93.70
56066;DHT22;75952;50.922;4.514;2024-02-04T09:36:06;11.30;94.00
56066;DHT22;75952;50.922;4.514;2024-02-04T09:38:34;11.20;93.90
56066;DHT22;75952;50.922;4.514;2024-02-04T09:41:01;11.30;94.10
56066;DHT22;75952;50.922;4.514;2024-02-04T09:43:32;11.30;93.70
56066;DHT22;75952;50.922;4.514;2024-02-04T09:45:59;11.30;93.70
56066;DHT22;75952;50.922;4.514;2024-02-04T09:48:32;11.30;93.30
56066;DHT22;75952;50.922;4.514;2024-02-04T09:51:00;11.30;93.70
56066;DHT22;75952;50.922;4.514;2024-02-04T09:53:33;11.30;93.80
56066;DHT22;75952;50.922;4.514;2024-02-04T09:56:03;11.30;93.90
56066;DHT22;75952;50.922;4.514;2024-02-04T09:58:31;11.20;93.80
56066;DHT22;75952;50.922;4.514;2024-02-04T10:01:00;11.30;93.70
56066;DHT22;75952;50.922;4.514;2024-02-04T10:03:26;11.30;93.80
56066;DHT22;75952;50.922;4.514;2024-02-04T10:05:52;11.40;93.50
56066;DHT22;75952;50.922;4.514;2024-02-04T10:08:18;11.40;93.50
56066;DHT22;75952;50.922;4.514;2024-02-04T10:10:44;11.40;93.60
56066;DHT22;75952;50.922;4.514;2024-02-04T10:13:09;11.40;93.50
56066;DHT22;75952;50.922;4.514;2024-02-04T10:15:35;11.40;93.30
56066;DHT22;75952;50.922;4.514;2024-02-04T10:18:04;11.30;93.60
56066;DHT22;75952;50.922;4.514;2024-02-04T10:20:33;11.30;93.80
56066;DHT22;75952;50.922;4.514;2024-02-04T10:22:58;11.30;93.90
56066;DHT22;75952;50.922;4.514;2024-02-04T10:25:26;11.20;93.70
56066;DHT22;75952;50.922;4.514;2024-02-04T10:27:55;11.20;93.90
56066;DHT22;75952;50.922;4.514;2024-02-04T10:30:25;11.20;93.80
56066;DHT22;75952;50.922;4.514;2024-02-04T10:32:51;11.30;93.70
56066;DHT22;75952;50.922;4.514;2024-02-04T10:35:17;11.30;93.50
56066;DHT22;75952;50.922;4.514;2024-02-04T10:37:48;11.30;93.30
56066;DHT22;75952;50.922;4.514;2024-02-04T10:40:14;11.40;93.40
56066;DHT22;75952;50.922;4.514;2024-02-04T10:42:42;11.50;93.10
56066;DHT22;75952;50.922;4.514;2024-02-04T10:45:11;11.60;92.80
56066;DHT22;75952;50.922;4.514;2024-02-04T10:47:40;11.60;92.80
56066;DHT22;75952;50.922;4.514;2024-02-04T10:50:08;11.60;93.00
56066;DHT22;75952;50.922;4.514;2024-02-04T10:52:38;11.70;93.00
56066;DHT22;75952;50.922;4.514;2024-02-04T10:55:08;11.80;92.50
56066;DHT22;75952;50.922;4.514;2024-02-04T10:57:40;11.90;92.00
56066;DHT22;75952;50.922;4.514;2024-02-04T11:00:06;12.00;91.80
56066;DHT22;75952;50.922;4.514;2024-02-04T11:02:35;12.10;91.70
56066;DHT22;75952;50.922;4.514;2024-02-04T11:05:03;12.10;91.40
56066;DHT22;75952;50.922;4.514;2024-02-04T11:07:33;12.10;91.60
56066;DHT22;75952;50.922;4.514;2024-02-04T11:10:02;12.00;91.60
56066;DHT22;75952;50.922;4.514;2024-02-04T11:12:33;11.90;91.90
56066;DHT22;75952;50.922;4.514;2024-02-04T11:15:05;12.00;91.60
56066;DHT22;75952;50.922;4.514;2024-02-04T11:25:49;11.80;91.80
56066;DHT22;75952;50.922;4.514;2024-02-04T11:28:21;11.90;91.50
56066;DHT22;75952;50.922;4.514;2024-02-04T11:30:47;11.90;91.90
56066;DHT22;75952;50.922;4.514;2024-02-04T11:33:19;11.80;91.70
56066;DHT22;75952;50.922;4.514;2024-02-04T11:35:45;11.80;92.20
56066;DHT22;75952;50.922;4.514;2024-02-04T11:38:11;11.70;91.90
56066;DHT22;75952;50.922;4.514;2024-02-04T11:40:39;11.80;92.10
56066;DHT22;75952;50.922;4.514;2024-02-04T11:43:06;11.80;92.60
56066;DHT22;75952;50.922;4.514;2024-02-04T11:45:32;11.80;92.10
56066;DHT22;75952;50.922;4.514;2024-02-04T11:48:01;11.80;92.30
56066;DHT22;75952;50.922;4.514;2024-02-04T11:50:30;11.70;92.30
56066;DHT22;75952;50.922;4.514;2024-02-04T11:53:11;11.80;92.30
56066;DHT22;75952;50.922;4.514;2024-02-04T11:55:40;11.80;92.00
56066;DHT22;75952;50.922;4.514;2024-02-04T11:58:08;11.80;92.10
56066;DHT22;75952;50.922;4.514;2024-02-04T12:00:37;11.80;92.00
56066;DHT22;75952;50.922;4.514;2024-02-04T12:03:07;11.90;91.80
56066;DHT22;75952;50.922;4.514;2024-02-04T12:05:34;12.00;91.90
56066;DHT22;75952;50.922;4.514;2024-02-04T12:08:05;12.00;91.60
56066;DHT22;75952;50.922;4.514;2024-02-04T12:10:36;11.90;91.80
56066;DHT22;75952;50.922;4.514;2024-02-04T12:13:03;11.90;91.90
56066;DHT22;75952;50.922;4.514;2024-02-04T12:15:31;12.00;91.60
56066;DHT22;75952;50.922;4.514;2024-02-04T12:18:12;12.00;91.70
56066;DHT22;75952;50.922;4.514;2024-02-04T12:20:48;11.90;92.00
56066;DHT22;75952;50.922;4.514;2024-02-04T12:23:17;11.90;92.30
56066;DHT22;75952;50.922;4.514;2024-02-04T12:25:49;11.80;92.60
56066;DHT22;75952;50.922;4.514;2024-02-04T12:28:17;11.80;92.60
56066;DHT22;75952;50.922;4.514;2024-02-04T12:30:56;11.80;92.30
56066;DHT22;75952;50.922;4.514;2024-02-04T12:33:23;11.90;92.10
56066;DHT22;75952;50.922;4.514;2024-02-04T12:35:51;11.80;92.20
56066;DHT22;75952;50.922;4.514;2024-02-04T12:38:17;11.90;92.00
56066;DHT22;75952;50.922;4.514;2024-02-04T12:40:43;11.90;92.30
56066;DHT22;75952;50.922;4.514;2024-02-04T12:43:12;12.00;92.00
56066;DHT22;75952;50.922;4.514;2024-02-04T12:45:40;12.00;92.20
56066;DHT22;75952;50.922;4.514;2024-02-04T12:48:08;11.90;92.20
56066;DHT22;75952;50.922;4.514;2024-02-04T12:50:37;11.90;92.00
56066;DHT22;75952;50.922;4.514;2024-02-04T12:53:05;12.00;92.10
56066;DHT22;75952;50.922;4.514;2024-02-04T12:55:35;11.90;92.30
56066;DHT22;75952;50.922;4.514;2024-02-04T12:58:02;11.80;92.40
56066;DHT22;75952;50.922;4.514;2024-02-04T13:00:35;11.70;92.70
56066;DHT22;75952;50.922;4.514;2024-02-04T13:03:02;11.80;92.50
56066;DHT22;75952;50.922;4.514;2024-02-04T13:05:33;11.90;92.20
56066;DHT22;75952;50.922;4.514;2024-02-04T13:08:02;12.10;92.10
56066;DHT22;75952;50.922;4.514;2024-02-04T13:10:30;12.10;91.80
56066;DHT22;75952;50.922;4.514;2024-02-04T13:13:07;12.10;91.60
56066;DHT22;75952;50.922;4.514;2024-02-04T13:15:40;12.00;92.20
56066;DHT22;75952;50.922;4.514;2024-02-04T13:18:07;11.90;91.90
56066;DHT22;75952;50.922;4.514;2024-02-04T13:20:35;12.00;91.80
56066;DHT22;75952;50.922;4.514;2024-02-04T13:23:01;12.00;91.60
56066;DHT22;75952;50.922;4.514;2024-02-04T13:25:30;11.90;91.60
56066;DHT22;75952;50.922;4.514;2024-02-04T13:27:59;12.00;91.70
56066;DHT22;75952;50.922;4.514;2024-02-04T13:30:25;11.80;92.10
56066;DHT22;75952;50.922;4.514;2024-02-04T13:32:50;11.80;92.20
56066;DHT22;75952;50.922;4.514;2024-02-04T13:35:18;11.90;92.10
56066;DHT22;75952;50.922;4.514;2024-02-04T13:37:45;11.80;92.30
56066;DHT22;75952;50.922;4.514;2024-02-04T13:40:13;11.80;92.50
56066;DHT22;75952;50.922;4.514;2024-02-04T13:42:42;11.80;92.40
56066;DHT22;75952;50.922;4.514;2024-02-04T13:45:12;11.90;92.20
56066;DHT22;75952;50.922;4.514;2024-02-04T13:47:41;11.90;92.20
56066;DHT22;75952;50.922;4.514;2024-02-04T13:50:08;11.90;92.30
56066;DHT22;75952;50.922;4.514;2024-02-04T13:52:38;11.90;92.20
56066;DHT22;75952;50.922;4.514;2024-02-04T13:55:04;11.90;91.90
56066;DHT22;75952;50.922;4.514;2024-02-04T13:57:33;11.80;92.20
56066;DHT22;75952;50.922;4.514;2024-02-04T14:00:00;12.00;91.80
56066;DHT22;75952;50.922;4.514;2024-02-04T14:02:26;12.00;91.80
56066;DHT22;75952;50.922;4.514;2024-02-04T14:04:57;12.00;91.50
56066;DHT22;75952;50.922;4.514;2024-02-04T14:07:23;12.00;91.50
56066;DHT22;75952;50.922;4.514;2024-02-04T14:09:51;12.00;91.60
56066;DHT22;75952;50.922;4.514;2024-02-04T14:12:17;11.90;91.80
56066;DHT22;75952;50.922;4.514;2024-02-04T14:14:43;11.90;91.80
56066;DHT22;75952;50.922;4.514;2024-02-04T14:17:08;11.90;91.90
56066;DHT22;75952;50.922;4.514;2024-02-04T14:19:35;11.80;92.20
56066;DHT22;75952;50.922;4.514;2024-02-04T14:22:00;11.90;92.00
56066;DHT22;75952;50.922;4.514;2024-02-04T14:24:26;11.80;92.10
56066;DHT22;75952;50.922;4.514;2024-02-04T14:26:58;11.80;92.30
56066;DHT22;75952;50.922;4.514;2024-02-04T14:29:28;11.90;91.90
56066;DHT22;75952;50.922;4.514;2024-02-04T14:31:56;11.90;91.90
56066;DHT22;75952;50.922;4.514;2024-02-04T14:34:23;11.90;91.70
56066;DHT22;75952;50.922;4.514;2024-02-04T14:36:48;12.00;91.90
56066;DHT22;75952;50.922;4.514;2024-02-04T14:39:18;12.00;91.60
56066;DHT22;75952;50.922;4.514;2024-02-04T14:41:44;12.00;91.20
56066;DHT22;75952;50.922;4.514;2024-02-04T14:44:10;12.00;91.40
56066;DHT22;75952;50.922;4.514;2024-02-04T14:46:41;12.00;91.20
56066;DHT22;75952;50.922;4.514;2024-02-04T14:49:08;12.00;91.10
56066;DHT22;75952;50.922;4.514;2024-02-04T14:51:38;12.10;90.90
56066;DHT22;75952;50.922;4.514;2024-02-04T14:54:07;12.10;90.90
56066;DHT22;75952;50.922;4.514;2024-02-04T14:56:41;12.10;90.80
56066;DHT22;75952;50.922;4.514;2024-02-04T14:59:10;12.10;91.00
56066;DHT22;75952;50.922;4.514;2024-02-04T15:01:44;12.20;90.90
56066;DHT22;75952;50.922;4.514;2024-02-04T15:04:12;12.10;90.80
56066;DHT22;75952;50.922;4.514;2024-02-04T15:06:42;12.10;90.90
56066;DHT22;75952;50.922;4.514;2024-02-04T15:09:09;12.10;91.20
56066;DHT22;75952;50.922;4.514;2024-02-04T15:11:36;12.00;91.30
56066;DHT22;75952;50.922;4.514;2024-02-04T15:14:02;12.00;91.20
56066;DHT22;75952;50.922;4.514;2024-02-04T15:16:28;11.90;91.50
56066;DHT22;75952;50.922;4.514;2024-02-04T15:18:54;11.90;91.40
56066;DHT22;75952;50.922;4.514;2024-02-04T15:21:20;11.90;91.60
56066;DHT22;75952;50.922;4.514;2024-02-04T15:23:46;11.90;91.60
56066;DHT22;75952;50.922;4.514;2024-02-04T15:26:12;11.90;91.60
56066;DHT22;75952;50.922;4.514;2024-02-04T15:28:41;11.80;91.70
56066;DHT22;75952;50.922;4.514;2024-02-04T15:31:07;11.90;91.60
56066;DHT22;75952;50.922;4.514;2024-02-04T15:33:35;11.80;91.60
56066;DHT22;75952;50.922;4.514;2024-02-04T15:36:03;11.70;91.90
56066;DHT22;75952;50.922;4.514;2024-02-04T15:38:29;11.70;91.90
56066;DHT22;75952;50.922;4.514;2024-02-04T15:40:57;11.70;92.10
56066;DHT22;75952;50.922;4.514;2024-02-04T15:43:22;11.70;92.50